sensor_id;sensor_type;location;lat;lon;timestamp;temperature;humidity
24408;DHT22;12542;50.924;4.516;2023-01-10T00:00:22;7.70;99.90
24408;DHT22;12542;50.924;4.516;2023-01-10T00:02:50;7.70;99.90
24408;DHT22;12542;50.924;4.516;2023-01-10T00:05:17;7.80;99.90
24408;DHT22;12542;50.924;4.516;2023-01-10T00:07:43;7.70;99.90
24408;DHT22;12542;50.924;4.516;2023-01-10T00:10:10;7.70;99.90
24408;DHT22;12542;50.924;4.516;2023-01-10T00:12:37;7.60;99.90
24408;DHT22;12542;50.924;4.516;2023-01-10T00:15:21;7.60;99.90
24408;DHT22;12542;50.924;4.516;2023-01-10T00:17:47;7.60;99.90
24408;DHT22;12542;50.924;4.516;2023-01-10T00:20:14;7.50;99.90
24408;DHT22;12542;50.924;4.516;2023-01-10T00:22:40;7.50;99.90
24408;DHT22;12542;50.924;4.516;2023-01-10T00:25:06;7.50;99.90
24408;DHT22;12542;50.924;4.516;2023-01-10T00:27:34;7.40;99.90
24408;DHT22;12542;50.924;4.516;2023-01-10T00:30:03;7.20;99.90
24408;DHT22;12542;50.924;4.516;2023-01-10T00:32:40;7.20;99.90
24408;DHT22;12542;50.924;4.516;2023-01-10T00:35:06;7.20;99.90
24408;DHT22;12542;50.924;4.516;2023-01-10T00:37:33;7.20;99.90
24408;DHT22;12542;50.924;4.516;2023-01-10T00:39:58;7.30;99.90
24408;DHT22;12542;50.924;4.516;2023-01-10T00:42:27;7.10;99.90
24408;DHT22;12542;50.924;4.516;2023-01-10T00:45:11;7.10;99.90
24408;DHT22;12542;50.924;4.516;2023-01-10T00:47:38;7.30;99.90
24408;DHT22;12542;50.924;4.516;2023-01-10T00:50:04;7.30;99.90
24408;DHT22;12542;50.924;4.516;2023-01-10T00:52:31;7.40;99.90
24408;DHT22;12542;50.924;4.516;2023-01-10T00:54:57;7.50;99.90
24408;DHT22;12542;50.924;4.516;2023-01-10T00:57:22;7.50;99.90
24408;DHT22;12542;50.924;4.516;2023-01-10T00:59:50;7.60;99.90
24408;DHT22;12542;50.924;4.516;2023-01-10T01:02:16;7.70;99.90
24408;DHT22;12542;50.924;4.516;2023-01-10T01:04:42;7.70;99.90
24408;DHT22;12542;50.924;4.516;2023-01-10T01:07:08;7.80;99.90
24408;DHT22;12542;50.924;4.516;2023-01-10T01:09:36;7.70;99.90
24408;DHT22;12542;50.924;4.516;2023-01-10T01:12:22;7.90;99.90
24408;DHT22;12542;50.924;4.516;2023-01-10T01:14:47;7.80;99.90
24408;DHT22;12542;50.924;4.516;2023-01-10T01:17:13;7.90;99.90
24408;DHT22;12542;50.924;4.516;2023-01-10T01:19:39;8.00;99.90
24408;DHT22;12542;50.924;4.516;2023-01-10T01:22:05;7.90;99.90
24408;DHT22;12542;50.924;4.516;2023-01-10T01:24:31;8.00;99.90
24408;DHT22;12542;50.924;4.516;2023-01-10T01:26:57;8.00;99.90
24408;DHT22;12542;50.924;4.516;2023-01-10T01:29:23;7.90;99.90
24408;DHT22;12542;50.924;4.516;2023-01-10T01:31:49;8.00;99.90
24408;DHT22;12542;50.924;4.516;2023-01-10T01:34:15;8.10;99.90
24408;DHT22;12542;50.924;4.516;2023-01-10T01:36:41;8.20;99.90
24408;DHT22;12542;50.924;4.516;2023-01-10T01:39:06;8.20;99.90
24408;DHT22;12542;50.924;4.516;2023-01-10T01:41:32;8.10;99.90
24408;DHT22;12542;50.924;4.516;2023-01-10T01:44:19;8.10;99.90
24408;DHT22;12542;50.924;4.516;2023-01-10T01:47:05;8.20;99.90
24408;DHT22;12542;50.924;4.516;2023-01-10T01:49:34;8.00;99.90
24408;DHT22;12542;50.924;4.516;2023-01-10T01:52:05;8.00;99.90
24408;DHT22;12542;50.924;4.516;2023-01-10T01:54:33;8.10;99.90
24408;DHT22;12542;50.924;4.516;2023-01-10T01:57:06;8.00;99.90
24408;DHT22;12542;50.924;4.516;2023-01-10T01:59:37;7.70;99.90
24408;DHT22;12542;50.924;4.516;2023-01-10T02:02:11;7.60;99.90
24408;DHT22;12542;50.924;4.516;2023-01-10T02:04:44;7.60;99.90
24408;DHT22;12542;50.924;4.516;2023-01-10T02:07:13;7.50;99.90
24408;DHT22;12542;50.924;4.516;2023-01-10T02:09:57;7.30;99.90
24408;DHT22;12542;50.924;4.516;2023-01-10T02:12:24;7.30;99.90
24408;DHT22;12542;50.924;4.516;2023-01-10T02:14:51;7.30;99.90
24408;DHT22;12542;50.924;4.516;2023-01-10T02:17:18;7.20;99.90
24408;DHT22;12542;50.924;4.516;2023-01-10T02:19:53;7.00;99.90
24408;DHT22;12542;50.924;4.516;2023-01-10T02:31:03;7.30;99.90
24408;DHT22;12542;50.924;4.516;2023-01-10T02:33:46;7.50;99.90
24408;DHT22;12542;50.924;4.516;2023-01-10T02:36:25;7.50;99.90
24408;DHT22;12542;50.924;4.516;2023-01-10T02:44:41;7.50;99.90
24408;DHT22;12542;50.924;4.516;2023-01-10T02:47:08;7.40;99.90
24408;DHT22;12542;50.924;4.516;2023-01-10T02:49:45;7.40;99.90
24408;DHT22;12542;50.924;4.516;2023-01-10T02:52:13;7.40;99.90
24408;DHT22;12542;50.924;4.516;2023-01-10T02:54:41;7.20;99.90
24408;DHT22;12542;50.924;4.516;2023-01-10T03:11:07;7.10;99.90
24408;DHT22;12542;50.924;4.516;2023-01-10T03:13:43;7.00;99.90
24408;DHT22;12542;50.924;4.516;2023-01-10T03:16:19;7.10;99.90
24408;DHT22;12542;50.924;4.516;2023-01-10T03:18:58;7.10;99.90
24408;DHT22;12542;50.924;4.516;2023-01-10T03:21:29;7.10;99.90
24408;DHT22;12542;50.924;4.516;2023-01-10T03:23:58;7.00;99.90
24408;DHT22;12542;50.924;4.516;2023-01-10T03:26:30;7.00;99.90
24408;DHT22;12542;50.924;4.516;2023-01-10T03:29:05;7.00;99.90
24408;DHT22;12542;50.924;4.516;2023-01-10T03:31:59;7.00;99.90
24408;DHT22;12542;50.924;4.516;2023-01-10T03:34:24;7.10;99.90
24408;DHT22;12542;50.924;4.516;2023-01-10T03:37:13;7.10;99.90
24408;DHT22;12542;50.924;4.516;2023-01-10T03:39:50;7.00;99.90
24408;DHT22;12542;50.924;4.516;2023-01-10T03:42:27;7.00;99.90
24408;DHT22;12542;50.924;4.516;2023-01-10T03:47:44;7.00;99.90
24408;DHT22;12542;50.924;4.516;2023-01-10T03:50:16;7.10;99.90
24408;DHT22;12542;50.924;4.516;2023-01-10T03:52:43;7.00;99.90
24408;DHT22;12542;50.924;4.516;2023-01-10T03:55:11;7.10;99.90
24408;DHT22;12542;50.924;4.516;2023-01-10T03:57:41;7.10;99.90
24408;DHT22;12542;50.924;4.516;2023-01-10T04:00:09;7.00;99.90
24408;DHT22;12542;50.924;4.516;2023-01-10T04:02:35;6.90;99.90
24408;DHT22;12542;50.924;4.516;2023-01-10T04:05:01;6.90;99.90
24408;DHT22;12542;50.924;4.516;2023-01-10T04:07:27;6.80;99.90
24408;DHT22;12542;50.924;4.516;2023-01-10T04:09:53;6.80;99.90
24408;DHT22;12542;50.924;4.516;2023-01-10T04:12:18;6.90;99.90
24408;DHT22;12542;50.924;4.516;2023-01-10T04:14:44;6.90;99.90
24408;DHT22;12542;50.924;4.516;2023-01-10T04:17:12;6.90;99.90
24408;DHT22;12542;50.924;4.516;2023-01-10T04:19:39;6.90;99.90
24408;DHT22;12542;50.924;4.516;2023-01-10T04:22:05;6.80;99.90
24408;DHT22;12542;50.924;4.516;2023-01-10T04:24:31;6.70;99.90
24408;DHT22;12542;50.924;4.516;2023-01-10T04:26:57;6.80;99.90
24408;DHT22;12542;50.924;4.516;2023-01-10T04:29:23;6.70;99.90
24408;DHT22;12542;50.924;4.516;2023-01-10T04:31:49;6.80;99.90
24408;DHT22;12542;50.924;4.516;2023-01-10T04:34:15;6.70;99.90
24408;DHT22;12542;50.924;4.516;2023-01-10T04:36:42;6.70;99.90
24408;DHT22;12542;50.924;4.516;2023-01-10T04:39:08;6.60;99.90
24408;DHT22;12542;50.924;4.516;2023-01-10T04:41:36;6.60;99.90
24408;DHT22;12542;50.924;4.516;2023-01-10T04:44:03;6.60;99.90
24408;DHT22;12542;50.924;4.516;2023-01-10T04:46:30;6.50;99.90
24408;DHT22;12542;50.924;4.516;2023-01-10T04:48:56;6.60;99.90
24408;DHT22;12542;50.924;4.516;2023-01-10T04:51:24;6.60;99.90
24408;DHT22;12542;50.924;4.516;2023-01-10T04:53:50;6.60;99.90
24408;DHT22;12542;50.924;4.516;2023-01-10T04:56:18;6.60;99.90
24408;DHT22;12542;50.924;4.516;2023-01-10T04:58:45;6.50;99.90
24408;DHT22;12542;50.924;4.516;2023-01-10T05:01:14;6.20;99.90
24408;DHT22;12542;50.924;4.516;2023-01-10T05:03:40;6.10;99.90
24408;DHT22;12542;50.924;4.516;2023-01-10T05:06:06;6.00;99.90
24408;DHT22;12542;50.924;4.516;2023-01-10T05:08:33;6.00;99.90
24408;DHT22;12542;50.924;4.516;2023-01-10T05:10:59;5.90;99.90
24408;DHT22;12542;50.924;4.516;2023-01-10T05:13:25;5.80;99.90
24408;DHT22;12542;50.924;4.516;2023-01-10T05:15:55;5.70;99.90
24408;DHT22;12542;50.924;4.516;2023-01-10T05:18:25;5.70;99.90
24408;DHT22;12542;50.924;4.516;2023-01-10T05:21:02;5.50;99.90
24408;DHT22;12542;50.924;4.516;2023-01-10T05:23:29;5.40;99.90
24408;DHT22;12542;50.924;4.516;2023-01-10T05:25:55;5.20;99.90
24408;DHT22;12542;50.924;4.516;2023-01-10T05:28:21;5.10;99.90
24408;DHT22;12542;50.924;4.516;2023-01-10T05:30:47;5.10;99.90
24408;DHT22;12542;50.924;4.516;2023-01-10T05:33:13;5.00;99.90
24408;DHT22;12542;50.924;4.516;2023-01-10T05:35:43;5.10;99.90
24408;DHT22;12542;50.924;4.516;2023-01-10T05:38:09;5.20;99.90
24408;DHT22;12542;50.924;4.516;2023-01-10T05:40:37;5.20;99.90
24408;DHT22;12542;50.924;4.516;2023-01-10T05:43:03;5.20;99.90
24408;DHT22;12542;50.924;4.516;2023-01-10T05:45:29;5.10;99.90
24408;DHT22;12542;50.924;4.516;2023-01-10T05:47:54;5.10;99.90
24408;DHT22;12542;50.924;4.516;2023-01-10T05:50:21;4.90;99.90
24408;DHT22;12542;50.924;4.516;2023-01-10T05:52:47;4.80;99.90
24408;DHT22;12542;50.924;4.516;2023-01-10T05:55:13;4.80;99.90
24408;DHT22;12542;50.924;4.516;2023-01-10T05:57:39;4.70;99.90
24408;DHT22;12542;50.924;4.516;2023-01-10T06:00:05;4.70;99.90
24408;DHT22;12542;50.924;4.516;2023-01-10T06:02:32;4.70;99.90
24408;DHT22;12542;50.924;4.516;2023-01-10T06:04:58;4.70;99.90
24408;DHT22;12542;50.924;4.516;2023-01-10T06:07:24;4.80;99.90
24408;DHT22;12542;50.924;4.516;2023-01-10T06:09:50;4.80;99.90
24408;DHT22;12542;50.924;4.516;2023-01-10T06:12:16;4.80;99.90
24408;DHT22;12542;50.924;4.516;2023-01-10T06:14:44;4.70;99.90
24408;DHT22;12542;50.924;4.516;2023-01-10T06:17:12;4.70;99.90
24408;DHT22;12542;50.924;4.516;2023-01-10T06:19:38;4.80;99.90
24408;DHT22;12542;50.924;4.516;2023-01-10T06:22:03;4.70;99.90
24408;DHT22;12542;50.924;4.516;2023-01-10T06:24:29;4.70;99.90
24408;DHT22;12542;50.924;4.516;2023-01-10T06:26:56;4.80;99.90
24408;DHT22;12542;50.924;4.516;2023-01-10T06:29:22;4.80;99.90
24408;DHT22;12542;50.924;4.516;2023-01-10T06:31:48;4.80;99.90
24408;DHT22;12542;50.924;4.516;2023-01-10T06:34:14;4.80;99.90
24408;DHT22;12542;50.924;4.516;2023-01-10T06:36:40;4.90;99.90
24408;DHT22;12542;50.924;4.516;2023-01-10T06:39:05;4.80;99.90
24408;DHT22;12542;50.924;4.516;2023-01-10T06:41:31;4.70;99.90
24408;DHT22;12542;50.924;4.516;2023-01-10T06:43:57;4.60;99.90
24408;DHT22;12542;50.924;4.516;2023-01-10T06:46:23;4.80;99.90
24408;DHT22;12542;50.924;4.516;2023-01-10T06:48:49;4.80;99.90
24408;DHT22;12542;50.924;4.516;2023-01-10T06:51:16;4.90;99.90
24408;DHT22;12542;50.924;4.516;2023-01-10T06:53:42;4.70;99.90
24408;DHT22;12542;50.924;4.516;2023-01-10T06:56:08;4.80;99.90
24408;DHT22;12542;50.924;4.516;2023-01-10T06:58:35;4.70;99.90
24408;DHT22;12542;50.924;4.516;2023-01-10T07:01:05;4.60;99.90
24408;DHT22;12542;50.924;4.516;2023-01-10T07:03:31;4.60;99.90
24408;DHT22;12542;50.924;4.516;2023-01-10T07:06:01;4.60;99.90
24408;DHT22;12542;50.924;4.516;2023-01-10T07:08:27;4.60;99.90
24408;DHT22;12542;50.924;4.516;2023-01-10T07:10:56;4.60;99.90
24408;DHT22;12542;50.924;4.516;2023-01-10T07:13:22;4.60;99.90
24408;DHT22;12542;50.924;4.516;2023-01-10T07:15:49;4.50;99.90
24408;DHT22;12542;50.924;4.516;2023-01-10T07:18:14;4.40;99.90
24408;DHT22;12542;50.924;4.516;2023-01-10T07:20:41;4.40;99.90
24408;DHT22;12542;50.924;4.516;2023-01-10T07:23:08;4.40;99.90
24408;DHT22;12542;50.924;4.516;2023-01-10T07:25:43;4.50;99.90
24408;DHT22;12542;50.924;4.516;2023-01-10T07:30:38;4.60;99.90
24408;DHT22;12542;50.924;4.516;2023-01-10T07:33:03;4.60;99.90
24408;DHT22;12542;50.924;4.516;2023-01-10T07:35:36;4.60;99.90
24408;DHT22;12542;50.924;4.516;2023-01-10T08:03:57;5.00;99.90
24408;DHT22;12542;50.924;4.516;2023-01-10T08:06:23;5.00;99.90
24408;DHT22;12542;50.924;4.516;2023-01-10T08:08:49;5.00;99.90
24408;DHT22;12542;50.924;4.516;2023-01-10T08:11:14;5.00;99.90
24408;DHT22;12542;50.924;4.516;2023-01-10T08:13:41;5.10;99.90
24408;DHT22;12542;50.924;4.516;2023-01-10T08:16:09;5.20;99.90
24408;DHT22;12542;50.924;4.516;2023-01-10T08:18:35;5.30;99.90
24408;DHT22;12542;50.924;4.516;2023-01-10T08:21:01;5.40;99.90
24408;DHT22;12542;50.924;4.516;2023-01-10T08:23:28;5.70;99.90
24408;DHT22;12542;50.924;4.516;2023-01-10T08:25:57;6.00;99.90
24408;DHT22;12542;50.924;4.516;2023-01-10T08:28:23;6.10;99.90
24408;DHT22;12542;50.924;4.516;2023-01-10T08:30:48;6.20;99.90
24408;DHT22;12542;50.924;4.516;2023-01-10T08:33:20;6.20;99.90
24408;DHT22;12542;50.924;4.516;2023-01-10T08:35:47;6.20;99.90
24408;DHT22;12542;50.924;4.516;2023-01-10T08:38:13;6.00;99.90
24408;DHT22;12542;50.924;4.516;2023-01-10T08:40:38;6.00;99.90
24408;DHT22;12542;50.924;4.516;2023-01-10T08:43:08;6.10;99.90
24408;DHT22;12542;50.924;4.516;2023-01-10T08:45:37;5.90;99.90
24408;DHT22;12542;50.924;4.516;2023-01-10T08:48:06;5.90;99.90
24408;DHT22;12542;50.924;4.516;2023-01-10T08:50:34;5.90;99.90
24408;DHT22;12542;50.924;4.516;2023-01-10T08:53:00;5.90;99.90
24408;DHT22;12542;50.924;4.516;2023-01-10T08:55:27;5.80;99.90
24408;DHT22;12542;50.924;4.516;2023-01-10T08:57:52;5.80;99.90
24408;DHT22;12542;50.924;4.516;2023-01-10T09:00:18;5.80;99.90
24408;DHT22;12542;50.924;4.516;2023-01-10T09:03:09;5.90;99.90
24408;DHT22;12542;50.924;4.516;2023-01-10T09:05:35;5.90;99.90
24408;DHT22;12542;50.924;4.516;2023-01-10T09:08:02;6.10;99.90
24408;DHT22;12542;50.924;4.516;2023-01-10T09:10:29;6.00;99.90
24408;DHT22;12542;50.924;4.516;2023-01-10T09:12:59;5.90;99.90
24408;DHT22;12542;50.924;4.516;2023-01-10T09:15:29;5.90;99.90
24408;DHT22;12542;50.924;4.516;2023-01-10T09:17:57;5.90;99.90
24408;DHT22;12542;50.924;4.516;2023-01-10T09:20:25;6.00;99.90
24408;DHT22;12542;50.924;4.516;2023-01-10T09:22:52;6.00;99.90
24408;DHT22;12542;50.924;4.516;2023-01-10T09:25:17;6.00;99.90
24408;DHT22;12542;50.924;4.516;2023-01-10T09:27:43;6.20;99.90
24408;DHT22;12542;50.924;4.516;2023-01-10T09:30:09;6.10;99.90
24408;DHT22;12542;50.924;4.516;2023-01-10T09:32:36;6.10;99.90
24408;DHT22;12542;50.924;4.516;2023-01-10T09:35:02;6.10;99.90
24408;DHT22;12542;50.924;4.516;2023-01-10T09:37:28;6.10;99.90
24408;DHT22;12542;50.924;4.516;2023-01-10T09:39:54;6.10;99.90
24408;DHT22;12542;50.924;4.516;2023-01-10T09:45:18;6.20;99.90
24408;DHT22;12542;50.924;4.516;2023-01-10T09:47:57;6.40;99.90
24408;DHT22;12542;50.924;4.516;2023-01-10T09:53:28;6.50;99.90
24408;DHT22;12542;50.924;4.516;2023-01-10T09:55:57;6.50;99.90
24408;DHT22;12542;50.924;4.516;2023-01-10T09:58:27;6.60;99.90
24408;DHT22;12542;50.924;4.516;2023-01-10T10:06:18;6.80;99.90
24408;DHT22;12542;50.924;4.516;2023-01-10T10:08:46;6.80;99.90
24408;DHT22;12542;50.924;4.516;2023-01-10T10:14:28;7.00;99.90
24408;DHT22;12542;50.924;4.516;2023-01-10T10:20:30;7.30;99.90
24408;DHT22;12542;50.924;4.516;2023-01-10T10:32:06;7.20;99.90
24408;DHT22;12542;50.924;4.516;2023-01-10T10:34:48;7.30;99.90
24408;DHT22;12542;50.924;4.516;2023-01-10T10:37:29;7.20;99.90
24408;DHT22;12542;50.924;4.516;2023-01-10T10:42:34;7.30;99.90
24408;DHT22;12542;50.924;4.516;2023-01-10T10:45:00;7.40;99.90
24408;DHT22;12542;50.924;4.516;2023-01-10T10:47:32;7.40;99.90
24408;DHT22;12542;50.924;4.516;2023-01-10T10:50:01;7.40;99.90
24408;DHT22;12542;50.924;4.516;2023-01-10T10:52:35;7.30;99.90
24408;DHT22;12542;50.924;4.516;2023-01-10T10:55:18;7.30;99.90
24408;DHT22;12542;50.924;4.516;2023-01-10T10:57:48;7.30;99.90
24408;DHT22;12542;50.924;4.516;2023-01-10T11:00:17;7.40;99.90
24408;DHT22;12542;50.924;4.516;2023-01-10T11:02:52;7.40;99.90
24408;DHT22;12542;50.924;4.516;2023-01-10T11:05:31;7.50;99.90
24408;DHT22;12542;50.924;4.516;2023-01-10T11:08:07;7.50;99.90
24408;DHT22;12542;50.924;4.516;2023-01-10T11:10:55;7.50;99.90
24408;DHT22;12542;50.924;4.516;2023-01-10T11:13:52;7.40;99.90
24408;DHT22;12542;50.924;4.516;2023-01-10T11:16:29;7.40;99.90
24408;DHT22;12542;50.924;4.516;2023-01-10T11:19:18;7.50;99.90
24408;DHT22;12542;50.924;4.516;2023-01-10T11:21:59;7.50;99.90
24408;DHT22;12542;50.924;4.516;2023-01-10T11:30:34;7.50;99.90
24408;DHT22;12542;50.924;4.516;2023-01-10T11:33:34;7.50;99.90
24408;DHT22;12542;50.924;4.516;2023-01-10T11:36:10;7.50;99.90
24408;DHT22;12542;50.924;4.516;2023-01-10T11:39:06;7.60;99.90
24408;DHT22;12542;50.924;4.516;2023-01-10T11:41:31;7.50;99.90
24408;DHT22;12542;50.924;4.516;2023-01-10T11:44:28;7.50;99.90
24408;DHT22;12542;50.924;4.516;2023-01-10T11:47:00;7.60;99.90
24408;DHT22;12542;50.924;4.516;2023-01-10T11:49:51;7.80;99.90
24408;DHT22;12542;50.924;4.516;2023-01-10T11:52:20;7.80;99.90
24408;DHT22;12542;50.924;4.516;2023-01-10T11:54:47;7.80;99.90
24408;DHT22;12542;50.924;4.516;2023-01-10T12:00:08;7.70;99.90
24408;DHT22;12542;50.924;4.516;2023-01-10T12:02:39;7.70;99.90
24408;DHT22;12542;50.924;4.516;2023-01-10T12:05:18;7.80;99.90
24408;DHT22;12542;50.924;4.516;2023-01-10T12:07:58;7.80;99.90
24408;DHT22;12542;50.924;4.516;2023-01-10T12:11:03;7.80;99.90
24408;DHT22;12542;50.924;4.516;2023-01-10T12:13:49;7.90;99.90
24408;DHT22;12542;50.924;4.516;2023-01-10T12:16:31;7.80;99.90
24408;DHT22;12542;50.924;4.516;2023-01-10T12:19:03;7.90;99.90
24408;DHT22;12542;50.924;4.516;2023-01-10T12:21:41;7.90;99.90
24408;DHT22;12542;50.924;4.516;2023-01-10T12:24:29;8.00;99.90
24408;DHT22;12542;50.924;4.516;2023-01-10T12:26:59;7.90;99.90
24408;DHT22;12542;50.924;4.516;2023-01-10T12:35:02;7.90;99.90
24408;DHT22;12542;50.924;4.516;2023-01-10T12:43:20;8.00;99.90
24408;DHT22;12542;50.924;4.516;2023-01-10T12:46:18;8.10;99.90
24408;DHT22;12542;50.924;4.516;2023-01-10T12:51:47;8.00;99.90
24408;DHT22;12542;50.924;4.516;2023-01-10T12:54:19;8.00;99.90
24408;DHT22;12542;50.924;4.516;2023-01-10T12:56:46;8.00;99.90
24408;DHT22;12542;50.924;4.516;2023-01-10T13:07:13;7.90;99.90
24408;DHT22;12542;50.924;4.516;2023-01-10T13:09:52;7.90;99.90
24408;DHT22;12542;50.924;4.516;2023-01-10T13:12:37;7.80;99.90
24408;DHT22;12542;50.924;4.516;2023-01-10T13:18:18;7.80;99.90
24408;DHT22;12542;50.924;4.516;2023-01-10T13:21:17;7.80;99.90
24408;DHT22;12542;50.924;4.516;2023-01-10T13:23:48;7.70;99.90
24408;DHT22;12542;50.924;4.516;2023-01-10T13:26:15;7.60;99.90
24408;DHT22;12542;50.924;4.516;2023-01-10T13:28:58;7.60;99.90
24408;DHT22;12542;50.924;4.516;2023-01-10T13:31:28;7.50;99.90
24408;DHT22;12542;50.924;4.516;2023-01-10T13:34:11;7.50;99.90
24408;DHT22;12542;50.924;4.516;2023-01-10T13:37:12;7.40;99.90
24408;DHT22;12542;50.924;4.516;2023-01-10T13:39:50;7.30;99.90
24408;DHT22;12542;50.924;4.516;2023-01-10T13:42:36;7.30;99.90
24408;DHT22;12542;50.924;4.516;2023-01-10T13:45:27;7.30;99.90
24408;DHT22;12542;50.924;4.516;2023-01-10T14:01:34;7.30;99.90
24408;DHT22;12542;50.924;4.516;2023-01-10T14:04:55;7.20;99.90
24408;DHT22;12542;50.924;4.516;2023-01-10T14:07:33;7.20;99.90
24408;DHT22;12542;50.924;4.516;2023-01-10T14:10:27;7.20;99.90
24408;DHT22;12542;50.924;4.516;2023-01-10T14:13:01;7.10;99.90
24408;DHT22;12542;50.924;4.516;2023-01-10T14:15:42;7.10;99.90
24408;DHT22;12542;50.924;4.516;2023-01-10T14:18:32;7.00;99.90
24408;DHT22;12542;50.924;4.516;2023-01-10T14:21:08;7.10;99.90
24408;DHT22;12542;50.924;4.516;2023-01-10T14:23:40;7.00;99.90
24408;DHT22;12542;50.924;4.516;2023-01-10T14:26:20;7.00;99.90
24408;DHT22;12542;50.924;4.516;2023-01-10T14:29:08;7.00;99.90
24408;DHT22;12542;50.924;4.516;2023-01-10T14:31:41;7.00;99.90
24408;DHT22;12542;50.924;4.516;2023-01-10T14:34:24;7.00;99.90
24408;DHT22;12542;50.924;4.516;2023-01-10T14:37:07;7.00;99.90
24408;DHT22;12542;50.924;4.516;2023-01-10T14:39:39;7.00;99.90
24408;DHT22;12542;50.924;4.516;2023-01-10T14:42:22;7.00;99.90
24408;DHT22;12542;50.924;4.516;2023-01-10T14:45:01;7.00;99.90
24408;DHT22;12542;50.924;4.516;2023-01-10T14:47:34;7.00;99.90
24408;DHT22;12542;50.924;4.516;2023-01-10T14:52:57;7.00;99.90
24408;DHT22;12542;50.924;4.516;2023-01-10T14:55:45;7.00;99.90
24408;DHT22;12542;50.924;4.516;2023-01-10T14:58:17;7.10;99.90
24408;DHT22;12542;50.924;4.516;2023-01-10T15:00:50;7.10;99.90
24408;DHT22;12542;50.924;4.516;2023-01-10T15:03:29;7.10;99.90
24408;DHT22;12542;50.924;4.516;2023-01-10T15:05:58;7.10;99.90
24408;DHT22;12542;50.924;4.516;2023-01-10T15:11:15;7.10;99.90
24408;DHT22;12542;50.924;4.516;2023-01-10T15:14:04;7.10;99.90
24408;DHT22;12542;50.924;4.516;2023-01-10T15:16:33;7.10;99.90
24408;DHT22;12542;50.924;4.516;2023-01-10T15:19:03;7.00;99.90
24408;DHT22;12542;50.924;4.516;2023-01-10T15:21:31;7.10;99.90
24408;DHT22;12542;50.924;4.516;2023-01-10T15:23:57;7.10;99.90
24408;DHT22;12542;50.924;4.516;2023-01-10T15:29:11;7.20;99.90
24408;DHT22;12542;50.924;4.516;2023-01-10T15:31:43;7.20;99.90
24408;DHT22;12542;50.924;4.516;2023-01-10T15:34:15;7.20;99.90
24408;DHT22;12542;50.924;4.516;2023-01-10T15:36:47;7.20;99.90
24408;DHT22;12542;50.924;4.516;2023-01-10T15:39:38;7.10;99.90
24408;DHT22;12542;50.924;4.516;2023-01-10T15:42:08;7.10;99.90
24408;DHT22;12542;50.924;4.516;2023-01-10T15:44:43;7.10;99.90
24408;DHT22;12542;50.924;4.516;2023-01-10T15:50:31;7.20;99.90
24408;DHT22;12542;50.924;4.516;2023-01-10T15:53:04;7.20;99.90
24408;DHT22;12542;50.924;4.516;2023-01-10T15:55:39;7.10;99.90
24408;DHT22;12542;50.924;4.516;2023-01-10T15:58:16;7.20;99.90
24408;DHT22;12542;50.924;4.516;2023-01-10T16:00:47;7.10;99.90
24408;DHT22;12542;50.924;4.516;2023-01-10T16:03:37;7.20;99.90
24408;DHT22;12542;50.924;4.516;2023-01-10T16:06:05;7.20;99.90
24408;DHT22;12542;50.924;4.516;2023-01-10T16:08:36;7.20;99.90
24408;DHT22;12542;50.924;4.516;2023-01-10T16:11:05;7.20;99.90
24408;DHT22;12542;50.924;4.516;2023-01-10T16:13:33;7.20;99.90
24408;DHT22;12542;50.924;4.516;2023-01-10T16:16:02;7.20;99.90
24408;DHT22;12542;50.924;4.516;2023-01-10T16:18:33;7.20;99.90
24408;DHT22;12542;50.924;4.516;2023-01-10T16:21:00;7.30;99.90
24408;DHT22;12542;50.924;4.516;2023-01-10T16:23:32;7.30;99.90
24408;DHT22;12542;50.924;4.516;2023-01-10T16:26:03;7.40;99.90
24408;DHT22;12542;50.924;4.516;2023-01-10T16:28:34;7.50;99.90
24408;DHT22;12542;50.924;4.516;2023-01-10T16:31:03;7.50;99.90
24408;DHT22;12542;50.924;4.516;2023-01-10T16:33:32;7.50;99.90
24408;DHT22;12542;50.924;4.516;2023-01-10T16:35:58;7.50;99.90
24408;DHT22;12542;50.924;4.516;2023-01-10T16:38:26;7.50;99.90
24408;DHT22;12542;50.924;4.516;2023-01-10T16:40:59;7.70;99.90
24408;DHT22;12542;50.924;4.516;2023-01-10T16:43:50;7.60;99.90
24408;DHT22;12542;50.924;4.516;2023-01-10T16:46:17;7.70;99.90
24408;DHT22;12542;50.924;4.516;2023-01-10T16:48:43;7.70;99.90
24408;DHT22;12542;50.924;4.516;2023-01-10T16:51:17;7.80;99.90
24408;DHT22;12542;50.924;4.516;2023-01-10T16:53:45;7.80;99.90
24408;DHT22;12542;50.924;4.516;2023-01-10T16:56:13;7.80;99.90
24408;DHT22;12542;50.924;4.516;2023-01-10T16:58:39;7.80;99.90
24408;DHT22;12542;50.924;4.516;2023-01-10T17:01:12;7.80;99.90
24408;DHT22;12542;50.924;4.516;2023-01-10T17:03:44;7.90;99.90
24408;DHT22;12542;50.924;4.516;2023-01-10T17:06:14;7.90;99.90
24408;DHT22;12542;50.924;4.516;2023-01-10T17:08:40;8.00;99.90
24408;DHT22;12542;50.924;4.516;2023-01-10T17:11:29;8.00;99.90
24408;DHT22;12542;50.924;4.516;2023-01-10T17:13:57;7.90;99.90
24408;DHT22;12542;50.924;4.516;2023-01-10T17:16:23;7.90;99.90
24408;DHT22;12542;50.924;4.516;2023-01-10T17:18:49;8.00;99.90
24408;DHT22;12542;50.924;4.516;2023-01-10T17:21:17;8.10;99.90
24408;DHT22;12542;50.924;4.516;2023-01-10T17:23:44;8.10;99.90
24408;DHT22;12542;50.924;4.516;2023-01-10T17:26:12;8.20;99.90
24408;DHT22;12542;50.924;4.516;2023-01-10T17:28:38;8.10;99.90
24408;DHT22;12542;50.924;4.516;2023-01-10T17:31:07;8.20;99.90
24408;DHT22;12542;50.924;4.516;2023-01-10T17:33:36;8.20;99.90
24408;DHT22;12542;50.924;4.516;2023-01-10T17:36:02;8.30;99.90
24408;DHT22;12542;50.924;4.516;2023-01-10T17:38:32;8.20;99.90
24408;DHT22;12542;50.924;4.516;2023-01-10T17:40:59;8.30;99.90
24408;DHT22;12542;50.924;4.516;2023-01-10T17:43:36;8.30;99.90
24408;DHT22;12542;50.924;4.516;2023-01-10T17:46:02;8.30;99.90
24408;DHT22;12542;50.924;4.516;2023-01-10T17:48:30;8.40;99.90
24408;DHT22;12542;50.924;4.516;2023-01-10T17:51:00;8.40;99.90
24408;DHT22;12542;50.924;4.516;2023-01-10T17:53:35;8.40;99.90
24408;DHT22;12542;50.924;4.516;2023-01-10T17:56:01;8.40;99.90
24408;DHT22;12542;50.924;4.516;2023-01-10T17:58:27;8.40;99.90
24408;DHT22;12542;50.924;4.516;2023-01-10T18:00:53;8.40;99.90
24408;DHT22;12542;50.924;4.516;2023-01-10T18:03:19;8.40;99.90
24408;DHT22;12542;50.924;4.516;2023-01-10T18:06:08;8.40;99.90
24408;DHT22;12542;50.924;4.516;2023-01-10T18:11:11;8.50;99.90
24408;DHT22;12542;50.924;4.516;2023-01-10T18:13:41;8.60;99.90
24408;DHT22;12542;50.924;4.516;2023-01-10T18:16:07;8.60;99.90
24408;DHT22;12542;50.924;4.516;2023-01-10T18:18:44;8.70;99.90
24408;DHT22;12542;50.924;4.516;2023-01-10T18:21:15;8.70;99.90
24408;DHT22;12542;50.924;4.516;2023-01-10T18:23:42;8.70;99.90
24408;DHT22;12542;50.924;4.516;2023-01-10T18:26:11;8.80;99.90
24408;DHT22;12542;50.924;4.516;2023-01-10T18:28:39;8.80;99.90
24408;DHT22;12542;50.924;4.516;2023-01-10T18:31:08;8.90;99.90
24408;DHT22;12542;50.924;4.516;2023-01-10T18:33:34;8.90;99.90
24408;DHT22;12542;50.924;4.516;2023-01-10T18:36:06;9.00;99.90
24408;DHT22;12542;50.924;4.516;2023-01-10T18:38:33;9.00;99.90
24408;DHT22;12542;50.924;4.516;2023-01-10T18:40:59;9.10;99.90